createdAt,value
2018-05-31T00:00:09.465Z,20.3
2018-05-31T00:00:59.663Z,20.3
2018-05-31T00:01:49.311Z,20.3
2018-05-31T00:02:38.803Z,20.3
2018-05-31T00:03:29.482Z,20.3
2018-05-31T00:04:19.183Z,20.3
2018-05-31T00:05:09.901Z,20.3
2018-05-31T00:05:59.981Z,20.3
2018-05-31T00:06:49.251Z,20.3
2018-05-31T00:07:39.442Z,20.3
2018-05-31T00:08:28.986Z,20.3
2018-05-31T00:09:19.306Z,20.3
2018-05-31T00:10:10.830Z,20.3
2018-05-31T00:10:59.432Z,20.3
2018-05-31T00:11:50.080Z,20.3
2018-05-31T00:12:40.160Z,20.3
2018-05-31T00:13:31.717Z,20.3
2018-05-31T00:14:20.302Z,20.3
2018-05-31T00:15:10.587Z,20.3
2018-05-31T00:15:59.517Z,20.3
2018-05-31T00:16:53.215Z,20.3
2018-05-31T00:17:39.654Z,20.3
2018-05-31T00:18:30.577Z,20.3
2018-05-31T00:19:19.492Z,20.3
2018-05-31T00:20:13.216Z,20.3
2018-05-31T00:21:00.789Z,20.3
2018-05-31T00:21:51.157Z,20.3
2018-05-31T00:22:40.034Z,20.3
2018-05-31T00:23:33.830Z,20.3
2018-05-31T00:24:20.491Z,20.3
2018-05-31T00:25:11.723Z,20.3
2018-05-31T00:26:01.193Z,20.3
2018-05-31T00:26:51.551Z,20.3
2018-05-31T00:27:40.979Z,20.3
2018-05-31T00:28:31.373Z,20.3
2018-05-31T00:29:20.631Z,20.3
2018-05-31T00:30:11.266Z,20.3
2018-05-31T00:31:01.534Z,20.3
2018-05-31T00:31:51.629Z,20.3
2018-05-31T00:32:42.000Z,20.3
2018-05-31T00:33:31.752Z,20.3
2018-05-31T00:34:21.558Z,20.3
2018-05-31T00:35:11.277Z,20.3
2018-05-31T00:36:02.189Z,20.3
2018-05-31T00:36:51.965Z,20.3
2018-05-31T00:37:41.690Z,20.3
2018-05-31T00:38:31.819Z,20.3
2018-05-31T00:39:22.433Z,20.3
2018-05-31T00:40:11.915Z,20.2
2018-05-31T00:41:02.622Z,20.3
2018-05-31T00:41:51.488Z,20.3
2018-05-31T00:42:44.087Z,20.3
2018-05-31T00:43:31.983Z,20.2
2018-05-31T00:44:22.840Z,20.3
2018-05-31T00:45:12.025Z,20.2
2018-05-31T00:46:04.932Z,20.2
2018-05-31T00:46:51.872Z,20.2
2018-05-31T00:47:41.361Z,20.2
2018-05-31T00:48:32.920Z,20.2
2018-05-31T00:49:25.957Z,20.3
2018-05-31T00:50:12.398Z,20.2
2018-05-31T00:51:03.022Z,20.2
2018-05-31T00:51:52.515Z,20.2
2018-05-31T00:52:45.259Z,20.2
2018-05-31T00:53:32.651Z,20.2
2018-05-31T00:54:23.727Z,20.2
2018-05-31T00:55:13.101Z,20.2
2018-05-31T00:56:05.780Z,20.2
2018-05-31T00:56:53.227Z,20.2
2018-05-31T00:57:43.601Z,20.2
2018-05-31T00:58:33.371Z,20.2
2018-05-31T00:59:24.668Z,20.2
2018-05-31T01:00:13.180Z,20.2
2018-05-31T01:01:02.933Z,20.2
2018-05-31T01:01:53.582Z,20.1
2018-05-31T01:02:43.694Z,20.2
2018-05-31T01:03:33.772Z,20.2
2018-05-31T01:04:22.646Z,20.1
2018-05-31T01:05:14.436Z,20.2
2018-05-31T01:06:03.648Z,20.2
2018-05-31T01:06:54.574Z,20.1
2018-05-31T01:07:44.362Z,20.1
2018-05-31T01:08:34.124Z,20.1
2018-05-31T01:09:24.173Z,20.2
2018-05-31T01:10:13.939Z,20.1
2018-05-31T01:11:04.339Z,20.1
2018-05-31T01:11:56.055Z,20.1
2018-05-31T01:12:44.131Z,20.1
2018-05-31T01:13:34.205Z,20.1
2018-05-31T01:14:24.515Z,20.1
2018-05-31T01:15:16.543Z,20.1
2018-05-31T01:16:04.106Z,20.1
2018-05-31T01:16:55.335Z,20.1
2018-05-31T01:17:44.788Z,20.1
2018-05-31T01:18:38.123Z,20.1
2018-05-31T01:19:24.133Z,20.1
2018-05-31T01:20:14.431Z,20.1
2018-05-31T01:21:04.287Z,20.1
2018-05-31T01:21:57.545Z,20.1
2018-05-31T01:22:44.294Z,20.1
2018-05-31T01:23:35.835Z,20.1
2018-05-31T01:24:24.980Z,20.1
2018-05-31T01:25:17.524Z,20.1
2018-05-31T01:26:05.716Z,20.1
2018-05-31T01:26:55.822Z,20.1
2018-05-31T01:27:45.870Z,20.1
2018-05-31T01:28:38.053Z,20.1
2018-05-31T01:29:25.698Z,20.1
2018-05-31T01:30:16.064Z,20.1
2018-05-31T01:31:05.781Z,20.1
2018-05-31T01:31:57.556Z,20.1
2018-05-31T01:32:46.202Z,20.1
2018-05-31T01:33:36.027Z,20.1
2018-05-31T01:34:25.507Z,20.1
2018-05-31T01:35:16.477Z,20.1
2018-05-31T01:36:06.508Z,20.1
2018-05-31T01:36:56.243Z,20.1
2018-05-31T01:37:47.075Z,20.1
2018-05-31T01:38:36.371Z,20.1
2018-05-31T01:39:26.184Z,20.1
2018-05-31T01:40:16.917Z,20.1
2018-05-31T01:41:07.749Z,20.1
2018-05-31T01:41:56.655Z,20.1
2018-05-31T01:42:46.738Z,20.1
2018-05-31T01:43:36.194Z,20.1
2018-05-31T01:44:27.579Z,20.1
2018-05-31T01:45:16.569Z,20.1
2018-05-31T01:46:06.679Z,20.1
2018-05-31T01:46:56.375Z,20.1
2018-05-31T01:47:49.725Z,20.1
2018-05-31T01:48:37.434Z,20.1
2018-05-31T01:49:27.517Z,20.1
2018-05-31T01:50:17.582Z,20.1
2018-05-31T01:51:09.794Z,20.1
2018-05-31T01:51:57.136Z,20
2018-05-31T01:52:47.769Z,20.1
2018-05-31T01:53:37.281Z,20.1
2018-05-31T01:54:30.089Z,20
2018-05-31T01:55:17.988Z,20.1
2018-05-31T01:56:08.011Z,20.1
2018-05-31T01:56:58.419Z,20
2018-05-31T01:57:51.141Z,20.1
2018-05-31T01:58:38.253Z,20.1
2018-05-31T01:59:27.692Z,20
2018-05-31T02:00:18.589Z,20
2018-05-31T02:01:10.833Z,20
2018-05-31T02:01:58.141Z,20
2018-05-31T02:02:48.585Z,20
2018-05-31T02:03:38.258Z,20
2018-05-31T02:04:29.768Z,20
2018-05-31T02:05:18.690Z,20
2018-05-31T02:06:08.474Z,20
2018-05-31T02:06:57.627Z,20
2018-05-31T02:07:48.326Z,20
2018-05-31T02:08:38.949Z,20
2018-05-31T02:09:28.699Z,20
2018-05-31T02:10:20.003Z,20
2018-05-31T02:11:09.458Z,20
2018-05-31T02:11:59.198Z,20
2018-05-31T02:12:49.013Z,20
2018-05-31T02:13:40.127Z,19.9
2018-05-31T02:14:29.380Z,19.9
2018-05-31T02:15:19.223Z,20
2018-05-31T02:16:08.925Z,20
2018-05-31T02:17:01.616Z,20
2018-05-31T02:17:49.364Z,19.9
2018-05-31T02:18:38.866Z,19.9
2018-05-31T02:19:28.368Z,19.9
2018-05-31T02:20:23.049Z,19.9
2018-05-31T02:21:09.673Z,19.9
2018-05-31T02:21:59.412Z,19.9
2018-05-31T02:22:50.102Z,19.9
2018-05-31T02:23:42.059Z,19.9
2018-05-31T02:24:29.466Z,19.9
2018-05-31T02:25:20.496Z,19.9
2018-05-31T02:26:10.287Z,19.9
2018-05-31T02:27:02.389Z,19.9
2018-05-31T02:27:50.538Z,19.9
2018-05-31T02:28:40.467Z,19.9
2018-05-31T02:29:30.592Z,19.9
2018-05-31T02:30:20.678Z,19.9
2018-05-31T02:31:10.865Z,19.9
2018-05-31T02:32:00.758Z,19.9
2018-05-31T02:32:50.777Z,19.9
2018-05-31T02:33:41.108Z,19.9
2018-05-31T02:34:30.332Z,19.9
2018-05-31T02:35:20.746Z,19.9
2018-05-31T02:36:10.510Z,19.9
2018-05-31T02:37:00.835Z,19.9
2018-05-31T02:37:51.186Z,19.9
2018-05-31T02:38:40.081Z,19.9
2018-05-31T02:39:32.460Z,19.9
2018-05-31T02:40:21.055Z,19.9
2018-05-31T02:41:11.151Z,19.9
2018-05-31T02:42:01.442Z,19.9
2018-05-31T02:42:53.707Z,19.9
2018-05-31T02:43:41.035Z,19.9
2018-05-31T02:44:31.393Z,19.9
2018-05-31T02:45:21.701Z,19.9
2018-05-31T02:46:14.089Z,19.9
2018-05-31T02:47:01.826Z,19.9
2018-05-31T02:47:52.272Z,19.9
2018-05-31T02:48:41.703Z,19.9
2018-05-31T02:49:34.505Z,19.9
2018-05-31T02:50:22.454Z,19.9
2018-05-31T02:51:11.611Z,19.9
2018-05-31T02:52:01.993Z,19.9
2018-05-31T02:52:55.350Z,19.9
2018-05-31T02:53:42.370Z,19.9
2018-05-31T02:54:31.594Z,19.9
2018-05-31T02:55:22.259Z,19.8
2018-05-31T02:56:14.484Z,19.9
2018-05-31T02:57:02.407Z,19.8
2018-05-31T02:57:52.949Z,19.8
2018-05-31T02:58:43.014Z,19.8
2018-05-31T02:59:31.701Z,19.8
2018-05-31T03:00:23.023Z,19.8
2018-05-31T03:01:12.676Z,19.8
2018-05-31T03:02:03.057Z,19.8
2018-05-31T03:02:53.098Z,19.8
2018-05-31T03:03:43.121Z,19.8
2018-05-31T03:04:33.097Z,19.8
2018-05-31T03:05:23.333Z,19.8
2018-05-31T03:06:13.347Z,19.8
2018-05-31T03:07:03.242Z,19.8
2018-05-31T03:07:53.313Z,19.8
2018-05-31T03:08:44.549Z,19.8
2018-05-31T03:09:33.313Z,19.8
2018-05-31T03:10:23.112Z,19.8
2018-05-31T03:11:13.755Z,19.8
2018-05-31T03:12:06.391Z,19.8
2018-05-31T03:12:53.842Z,19.8
2018-05-31T03:13:43.934Z,19.8
2018-05-31T03:14:32.252Z,19.8
2018-05-31T03:15:25.249Z,19.8
2018-05-31T03:16:14.126Z,19.8
2018-05-31T03:17:03.067Z,19.8
2018-05-31T03:17:54.606Z,19.8
2018-05-31T03:18:47.698Z,19.8
2018-05-31T03:19:34.119Z,19.8
2018-05-31T03:20:24.163Z,19.8
2018-05-31T03:21:14.239Z,19.8
2018-05-31T03:22:06.439Z,19.8
2018-05-31T03:22:54.306Z,19.8
2018-05-31T03:23:43.792Z,19.8
2018-05-31T03:24:34.469Z,19.8
2018-05-31T03:25:24.848Z,19.8
2018-05-31T03:26:14.564Z,19.8
2018-05-31T03:27:04.328Z,19.8
2018-05-31T03:27:54.696Z,19.8
2018-05-31T03:28:44.761Z,19.8
2018-05-31T03:29:35.096Z,19.8
2018-05-31T03:30:24.936Z,19.8
2018-05-31T03:31:16.522Z,19.8
2018-05-31T03:32:05.328Z,19.8
2018-05-31T03:32:55.083Z,19.8
2018-05-31T03:33:44.522Z,19.8
2018-05-31T03:34:37.707Z,19.8
2018-05-31T03:35:25.360Z,19.8
2018-05-31T03:36:14.433Z,19.8
2018-05-31T03:37:05.693Z,19.7
2018-05-31T03:37:57.917Z,19.8
2018-05-31T03:38:45.797Z,19.8
2018-05-31T03:39:35.290Z,19.8
2018-05-31T03:40:25.905Z,19.7
2018-05-31T03:41:18.831Z,19.7
2018-05-31T03:42:06.120Z,19.7
2018-05-31T03:42:55.573Z,19.7
2018-05-31T03:43:45.287Z,19.7
2018-05-31T03:44:34.096Z,19.7
2018-05-31T03:45:24.681Z,19.7
2018-05-31T03:46:16.422Z,19.7
2018-05-31T03:47:06.770Z,19.7
2018-05-31T03:47:56.643Z,19.7
2018-05-31T03:48:45.988Z,19.7
2018-05-31T03:49:35.505Z,19.7
2018-05-31T03:50:26.395Z,19.7
2018-05-31T03:51:16.755Z,19.7
2018-05-31T03:52:06.022Z,19.7
2018-05-31T03:52:57.129Z,19.8
2018-05-31T03:53:46.628Z,19.7
2018-05-31T03:54:37.039Z,19.7
2018-05-31T03:55:26.213Z,19.7
2018-05-31T03:56:16.609Z,19.7
2018-05-31T03:57:08.145Z,19.8
2018-05-31T03:57:57.012Z,19.7
2018-05-31T03:58:47.599Z,19.7
2018-05-31T03:59:36.225Z,19.7
2018-05-31T04:00:29.962Z,19.7
2018-05-31T04:01:17.814Z,19.7
2018-05-31T04:02:07.903Z,19.7
2018-05-31T04:02:57.626Z,19.7
2018-05-31T04:03:50.519Z,19.7
2018-05-31T04:04:38.150Z,19.7
2018-05-31T04:05:27.839Z,19.7
2018-05-31T04:06:18.170Z,19.7
2018-05-31T04:07:11.421Z,19.7
2018-05-31T04:07:57.755Z,19.7
2018-05-31T04:08:48.098Z,19.7
2018-05-31T04:09:38.498Z,19.7
2018-05-31T04:10:31.549Z,19.7
2018-05-31T04:11:18.289Z,19.7
2018-05-31T04:12:07.736Z,19.7
2018-05-31T04:12:58.616Z,19.7
2018-05-31T04:13:49.008Z,19.7
2018-05-31T04:14:37.680Z,19.7
2018-05-31T04:15:28.343Z,19.7
2018-05-31T04:16:18.395Z,19.7
2018-05-31T04:17:08.151Z,19.7
2018-05-31T04:17:58.202Z,19.7
2018-05-31T04:18:48.808Z,19.7
2018-05-31T04:19:39.298Z,19.7
2018-05-31T04:20:28.491Z,19.7
2018-05-31T04:21:19.021Z,19.7
2018-05-31T04:22:08.786Z,19.7
2018-05-31T04:23:00.545Z,19.7
2018-05-31T04:23:48.957Z,19.7
2018-05-31T04:24:39.597Z,19.7
2018-05-31T04:25:29.049Z,19.7
2018-05-31T04:26:21.946Z,19.7
2018-05-31T04:27:09.240Z,19.7
2018-05-31T04:27:59.286Z,19.7
2018-05-31T04:28:49.033Z,19.7
2018-05-31T04:29:42.450Z,19.7
2018-05-31T04:30:29.766Z,19.7
2018-05-31T04:31:19.804Z,19.7
2018-05-31T04:32:09.598Z,19.7
2018-05-31T04:33:02.677Z,19.7
2018-05-31T04:33:50.954Z,19.7
2018-05-31T04:34:40.202Z,19.7
2018-05-31T04:35:30.413Z,19.7
2018-05-31T04:36:22.821Z,19.7
2018-05-31T04:37:09.717Z,19.7
2018-05-31T04:38:00.279Z,19.7
2018-05-31T04:38:50.677Z,19.7
2018-05-31T04:39:39.806Z,19.7
2018-05-31T04:40:30.211Z,19.7
2018-05-31T04:41:20.561Z,19.7
2018-05-31T04:42:10.932Z,19.7
2018-05-31T04:43:00.965Z,19.7
2018-05-31T04:43:51.005Z,19.7
2018-05-31T04:44:40.505Z,19.7
2018-05-31T04:45:32.241Z,19.7
2018-05-31T04:46:21.225Z,19.7
2018-05-31T04:47:10.777Z,19.7
2018-05-31T04:48:01.068Z,19.7
2018-05-31T04:48:53.066Z,19.7
2018-05-31T04:49:41.208Z,19.7
2018-05-31T04:50:31.027Z,19.7
2018-05-31T04:51:20.447Z,19.7
2018-05-31T04:52:14.104Z,19.7
2018-05-31T04:53:01.568Z,19.7
2018-05-31T04:53:50.328Z,19.7
2018-05-31T04:54:41.002Z,19.7
2018-05-31T04:55:34.788Z,19.7
2018-05-31T04:56:21.172Z,19.7
2018-05-31T04:57:11.497Z,19.7
2018-05-31T04:58:01.896Z,19.7
2018-05-31T04:58:54.329Z,19.7
2018-05-31T04:59:40.871Z,19.7
2018-05-31T05:00:32.385Z,19.7
2018-05-31T05:01:21.785Z,19.7
2018-05-31T05:02:14.831Z,19.7
2018-05-31T05:03:02.051Z,19.7
2018-05-31T05:03:51.786Z,19.7
2018-05-31T05:04:41.576Z,19.7
2018-05-31T05:05:32.212Z,19.7
2018-05-31T05:06:21.871Z,19.7
2018-05-31T05:07:12.528Z,19.7
2018-05-31T05:08:02.614Z,19.7
2018-05-31T05:08:51.897Z,19.7
2018-05-31T05:09:41.993Z,19.7
2018-05-31T05:10:32.020Z,19.7
2018-05-31T05:11:23.228Z,19.7
2018-05-31T05:12:12.145Z,19.7
2018-05-31T05:13:02.533Z,19.7
2018-05-31T05:13:52.441Z,19.7
2018-05-31T05:14:45.066Z,19.7
2018-05-31T05:15:33.193Z,19.8
2018-05-31T05:16:23.000Z,19.8
2018-05-31T05:17:12.742Z,19.7
2018-05-31T05:18:06.603Z,19.7
2018-05-31T05:18:53.714Z,19.8
2018-05-31T05:19:43.253Z,19.7
2018-05-31T05:20:33.570Z,19.7
2018-05-31T05:21:27.062Z,19.8
2018-05-31T05:22:13.390Z,19.8
2018-05-31T05:23:03.169Z,19.8
2018-05-31T05:23:53.512Z,19.8
2018-05-31T05:24:44.782Z,19.7
2018-05-31T05:25:33.178Z,19.8
2018-05-31T05:26:23.071Z,19.8
2018-05-31T05:27:14.387Z,19.8
2018-05-31T05:28:04.263Z,19.8
2018-05-31T05:28:53.916Z,19.8
2018-05-31T05:29:44.588Z,19.8
2018-05-31T05:30:34.075Z,19.8
2018-05-31T05:31:24.119Z,19.8
2018-05-31T05:32:13.864Z,19.8
2018-05-31T05:33:04.211Z,19.8
2018-05-31T05:33:54.522Z,19.8
2018-05-31T05:34:44.621Z,19.8
2018-05-31T05:35:33.492Z,19.8
2018-05-31T05:36:24.780Z,19.8
2018-05-31T05:37:16.466Z,19.8
2018-05-31T05:38:05.145Z,19.8
2018-05-31T05:38:54.919Z,19.8
2018-05-31T05:39:45.306Z,19.8
2018-05-31T05:40:38.571Z,19.8
2018-05-31T05:41:25.144Z,19.8
2018-05-31T05:42:14.691Z,19.8
2018-05-31T05:43:05.344Z,19.8
2018-05-31T05:43:58.423Z,19.8
2018-05-31T05:44:45.758Z,19.8
2018-05-31T05:45:35.253Z,19.8
2018-05-31T05:46:24.906Z,19.8
2018-05-31T05:47:18.303Z,19.8
2018-05-31T05:48:05.356Z,19.8
2018-05-31T05:48:55.114Z,19.8
2018-05-31T05:49:45.764Z,19.8
2018-05-31T05:50:34.679Z,19.8
2018-05-31T05:51:25.319Z,19.8
2018-05-31T05:52:15.668Z,19.8
2018-05-31T05:53:05.802Z,19.8
2018-05-31T05:53:55.591Z,19.8
2018-05-31T05:54:45.858Z,19.8
2018-05-31T05:55:35.727Z,19.8
2018-05-31T05:56:27.931Z,19.8
2018-05-31T05:57:16.054Z,19.8
2018-05-31T05:58:06.698Z,19.8
2018-05-31T05:58:56.760Z,19.8
2018-05-31T05:59:48.657Z,19.8
2018-05-31T06:00:36.451Z,19.8
2018-05-31T06:01:26.634Z,19.8
2018-05-31T06:02:16.699Z,19.8
2018-05-31T06:03:10.037Z,19.8
2018-05-31T06:03:57.123Z,19.8
2018-05-31T06:04:47.210Z,19.8
2018-05-31T06:05:36.980Z,19.8
2018-05-31T06:06:30.205Z,19.8
2018-05-31T06:07:16.802Z,19.8
2018-05-31T06:08:07.424Z,19.8
2018-05-31T06:08:57.071Z,19.8
2018-05-31T06:09:48.209Z,19.8
2018-05-31T06:10:37.700Z,19.8
2018-05-31T06:11:27.760Z,19.8
2018-05-31T06:12:16.908Z,19.8
2018-05-31T06:13:07.602Z,19.8
2018-05-31T06:13:57.644Z,19.8
2018-05-31T06:14:47.710Z,19.8
2018-05-31T06:15:39.355Z,19.8
2018-05-31T06:16:27.834Z,19.8
2018-05-31T06:17:17.006Z,19.8
2018-05-31T06:18:07.966Z,19.8
2018-05-31T06:19:00.708Z,19.8
2018-05-31T06:19:48.556Z,19.8
2018-05-31T06:20:37.251Z,19.8
2018-05-31T06:21:27.345Z,19.8
2018-05-31T06:22:19.907Z,19.8
2018-05-31T06:23:08.702Z,19.8
2018-05-31T06:23:57.511Z,19.8
2018-05-31T06:24:48.416Z,19.8
2018-05-31T06:25:41.335Z,19.8
2018-05-31T06:26:31.377Z,19.8
2018-05-31T06:27:18.372Z,19.8
2018-05-31T06:28:08.393Z,19.8
2018-05-31T06:29:01.332Z,19.8
2018-05-31T06:29:47.716Z,19.8
2018-05-31T06:30:38.622Z,19.8
2018-05-31T06:31:29.012Z,19.8
2018-05-31T06:32:19.348Z,19.8
2018-05-31T06:33:08.843Z,19.8
2018-05-31T06:33:59.423Z,19.8
2018-05-31T06:34:49.073Z,19.8
2018-05-31T06:35:38.883Z,19.8
2018-05-31T06:36:29.231Z,19.8
2018-05-31T06:37:20.551Z,19.8
2018-05-31T06:38:09.665Z,19.8
2018-05-31T06:38:59.704Z,19.8
2018-05-31T06:39:49.220Z,19.8
2018-05-31T06:40:39.830Z,19.8
2018-05-31T06:41:29.642Z,19.8
2018-05-31T06:42:19.720Z,19.8
2018-05-31T06:43:09.868Z,19.8
2018-05-31T06:43:59.297Z,19.8
2018-05-31T06:44:49.614Z,19.8
2018-05-31T06:45:39.875Z,19.8
2018-05-31T06:46:29.430Z,19.8
2018-05-31T06:47:19.569Z,19.8
2018-05-31T06:48:10.170Z,19.8
2018-05-31T06:49:00.212Z,19.8
2018-05-31T06:49:50.029Z,19.8
2018-05-31T06:50:39.826Z,19.8
2018-05-31T06:51:29.497Z,19.8
2018-05-31T06:52:19.840Z,19.8
2018-05-31T06:53:10.512Z,19.8
2018-05-31T06:54:00.585Z,19.8
2018-05-31T06:54:50.333Z,19.8
2018-05-31T06:55:40.141Z,19.8
2018-05-31T06:56:30.489Z,19.8
2018-05-31T06:57:20.516Z,19.8
2018-05-31T06:58:10.363Z,19.8
2018-05-31T06:59:00.921Z,19.8
2018-05-31T06:59:50.675Z,19.8
2018-05-31T07:00:41.088Z,19.8
2018-05-31T07:01:30.790Z,19.8
2018-05-31T07:02:20.341Z,19.8
2018-05-31T07:03:11.514Z,19.8
2018-05-31T07:04:01.282Z,19.8
2018-05-31T07:04:50.837Z,19.8
2018-05-31T07:05:41.532Z,19.8
2018-05-31T07:06:30.983Z,19.8
2018-05-31T07:07:21.569Z,19.8
2018-05-31T07:08:11.626Z,19.8
2018-05-31T07:09:01.164Z,19.8
2018-05-31T07:09:51.726Z,19.8
2018-05-31T07:10:41.271Z,19.8
2018-05-31T07:11:31.403Z,19.8
2018-05-31T07:12:22.248Z,19.9
2018-05-31T07:13:11.759Z,19.8
2018-05-31T07:14:01.504Z,19.8
2018-05-31T07:14:52.381Z,19.9
2018-05-31T07:15:42.248Z,19.8
2018-05-31T07:16:32.002Z,19.8
2018-05-31T07:17:22.341Z,19.8
2018-05-31T07:18:12.377Z,19.8
2018-05-31T07:19:02.711Z,19.8
2018-05-31T07:19:52.497Z,19.8
2018-05-31T07:20:42.646Z,19.9
2018-05-31T07:21:32.199Z,19.8
2018-05-31T07:22:22.480Z,19.8
2018-05-31T07:23:12.488Z,19.9
2018-05-31T07:24:01.547Z,19.9
2018-05-31T07:24:52.659Z,19.8
2018-05-31T07:25:42.469Z,19.8
2018-05-31T07:26:33.034Z,19.8
2018-05-31T07:27:23.718Z,19.9
2018-05-31T07:28:12.597Z,19.9
2018-05-31T07:29:03.562Z,19.9
2018-05-31T07:29:52.734Z,19.9
2018-05-31T07:30:43.225Z,19.9
2018-05-31T07:31:32.452Z,19.9
2018-05-31T07:32:22.932Z,19.9
2018-05-31T07:33:12.478Z,19.9
2018-05-31T07:34:03.941Z,19.9
2018-05-31T07:34:53.701Z,19.9
2018-05-31T07:35:43.802Z,19.9
2018-05-31T07:36:33.855Z,19.9
2018-05-31T07:37:23.279Z,19.9
2018-05-31T07:38:13.395Z,19.9
2018-05-31T07:39:03.464Z,19.9
2018-05-31T07:39:53.513Z,19.9
2018-05-31T07:40:43.905Z,19.9
2018-05-31T07:41:33.922Z,19.9
2018-05-31T07:42:24.299Z,19.9
2018-05-31T07:43:14.019Z,19.9
2018-05-31T07:44:04.416Z,19.9
2018-05-31T07:44:54.722Z,19.9
2018-05-31T07:45:44.499Z,19.9
2018-05-31T07:46:33.455Z,19.9
2018-05-31T07:47:24.604Z,19.9
2018-05-31T07:48:14.754Z,19.9
2018-05-31T07:49:05.114Z,19.9
2018-05-31T07:49:54.548Z,19.9
2018-05-31T07:50:44.971Z,19.9
2018-05-31T07:51:35.304Z,19.9
2018-05-31T07:52:24.829Z,19.9
2018-05-31T07:53:15.457Z,19.9
2018-05-31T07:54:04.955Z,19.9
2018-05-31T07:54:55.169Z,19.9
2018-05-31T07:55:44.415Z,19.9
2018-05-31T07:56:35.324Z,19.9
2018-05-31T07:57:25.673Z,19.9
2018-05-31T07:58:16.434Z,19.9
2018-05-31T07:59:05.222Z,19.9
2018-05-31T07:59:55.283Z,19.9
2018-05-31T08:00:44.621Z,19.9
2018-05-31T08:01:34.594Z,19.9
2018-05-31T08:02:25.277Z,19.9
2018-05-31T08:03:15.919Z,19.9
2018-05-31T08:04:05.630Z,19.9
2018-05-31T08:04:56.016Z,19.9
2018-05-31T08:05:45.561Z,19.9
2018-05-31T08:06:35.610Z,19.9
2018-05-31T08:07:26.502Z,19.9
2018-05-31T08:08:16.592Z,19.9
2018-05-31T08:09:05.795Z,19.9
2018-05-31T08:09:56.455Z,19.9
2018-05-31T08:10:46.060Z,19.9
2018-05-31T08:11:36.772Z,19.9
2018-05-31T08:12:24.818Z,19.9
2018-05-31T08:13:16.135Z,19.9
2018-05-31T08:14:06.454Z,19.9
2018-05-31T08:14:56.770Z,19.9
2018-05-31T08:15:46.635Z,19.9
2018-05-31T08:16:36.117Z,19.9
2018-05-31T08:17:26.758Z,19.9
2018-05-31T08:18:17.062Z,19.9
2018-05-31T08:19:06.825Z,19.9
2018-05-31T08:19:56.987Z,19.9
2018-05-31T08:20:47.531Z,19.9
2018-05-31T08:21:37.618Z,19.9
2018-05-31T08:22:27.040Z,19.9
2018-05-31T08:23:16.548Z,19.9
2018-05-31T08:24:06.907Z,19.9
2018-05-31T08:24:57.316Z,19.9
2018-05-31T08:25:47.042Z,19.9
2018-05-31T08:26:37.150Z,19.9
2018-05-31T08:27:26.870Z,19.9
2018-05-31T08:28:17.007Z,19.9
2018-05-31T08:29:07.910Z,19.9
2018-05-31T08:29:58.259Z,19.9
2018-05-31T08:30:47.729Z,19.9
2018-05-31T08:31:40.196Z,19.9
2018-05-31T08:32:27.561Z,19.9
2018-05-31T08:33:16.605Z,19.9
2018-05-31T08:34:08.544Z,19.9
2018-05-31T08:34:58.692Z,19.9
2018-05-31T08:35:48.664Z,19.9
2018-05-31T08:36:38.766Z,19.9
2018-05-31T08:37:28.471Z,19.9
2018-05-31T08:38:17.737Z,19.9
2018-05-31T08:39:08.065Z,19.9
2018-05-31T08:39:58.698Z,19.9
2018-05-31T08:40:48.194Z,19.9
2018-05-31T08:41:38.274Z,19.9
2018-05-31T08:42:28.936Z,19.9
2018-05-31T08:43:18.989Z,19.9
2018-05-31T08:44:09.834Z,19.9
2018-05-31T08:44:58.510Z,19.9
2018-05-31T08:45:48.898Z,19.9
2018-05-31T08:46:39.181Z,19.9
2018-05-31T08:47:28.435Z,19.9
2018-05-31T08:48:19.406Z,19.9
2018-05-31T08:49:08.106Z,19.9
2018-05-31T08:49:59.751Z,19.9
2018-05-31T08:50:49.502Z,19.9
2018-05-31T08:51:39.042Z,19.9
2018-05-31T08:52:29.078Z,19.9
2018-05-31T08:53:19.157Z,19.9
2018-05-31T08:54:09.845Z,19.9
2018-05-31T08:54:59.824Z,19.9
2018-05-31T08:55:48.377Z,19.9
2018-05-31T08:56:39.981Z,19.9
2018-05-31T08:57:29.428Z,19.9
2018-05-31T08:58:19.528Z,19.9
2018-05-31T08:59:10.460Z,19.9
2018-05-31T08:59:59.717Z,19.9
2018-05-31T09:00:50.403Z,19.9
2018-05-31T09:01:40.077Z,19.9
2018-05-31T09:02:30.130Z,19.9
2018-05-31T09:03:20.007Z,19.9
2018-05-31T09:04:10.284Z,19.9
2018-05-31T09:04:59.656Z,19.9
2018-05-31T09:05:50.744Z,19.9
2018-05-31T09:06:39.602Z,19.9
2018-05-31T09:07:31.075Z,19.9
2018-05-31T09:08:20.884Z,19.9
2018-05-31T09:09:10.428Z,19.9
2018-05-31T09:10:00.773Z,19.9
2018-05-31T09:10:51.368Z,19.9
2018-05-31T09:11:41.448Z,19.9
2018-05-31T09:12:31.250Z,19.9
2018-05-31T09:13:20.696Z,19.9
2018-05-31T09:14:11.386Z,19.9
2018-05-31T09:15:01.726Z,19.9
2018-05-31T09:15:50.887Z,19.9
2018-05-31T09:16:41.523Z,19.9
2018-05-31T09:17:31.398Z,19.9
2018-05-31T09:18:21.394Z,19.9
2018-05-31T09:19:11.761Z,19.9
2018-05-31T09:20:00.949Z,19.9
2018-05-31T09:20:50.990Z,19.9
2018-05-31T09:21:42.178Z,19.9
2018-05-31T09:22:31.988Z,19.9
2018-05-31T09:23:21.773Z,19.9
2018-05-31T09:24:12.074Z,19.9
2018-05-31T09:25:02.208Z,19.9
2018-05-31T09:25:51.342Z,19.9
2018-05-31T09:26:42.021Z,19.9
2018-05-31T09:27:31.809Z,19.9
2018-05-31T09:28:22.468Z,19.9
2018-05-31T09:29:12.538Z,19.9
2018-05-31T09:30:02.284Z,19.9
2018-05-31T09:30:52.570Z,19.9
2018-05-31T09:31:42.959Z,19.9
2018-05-31T09:32:31.871Z,20
2018-05-31T09:33:22.828Z,19.9
2018-05-31T09:34:12.295Z,19.9
2018-05-31T09:35:02.770Z,19.9
2018-05-31T09:35:52.797Z,20
2018-05-31T09:36:42.842Z,20
2018-05-31T09:37:33.126Z,20
2018-05-31T09:38:23.163Z,19.9
2018-05-31T09:39:13.272Z,19.9
2018-05-31T09:40:03.606Z,19.9
2018-05-31T09:40:53.738Z,20
2018-05-31T09:41:42.567Z,20
2018-05-31T09:42:32.374Z,19.9
2018-05-31T09:43:23.005Z,20
2018-05-31T09:44:13.926Z,20
2018-05-31T09:45:04.051Z,20
2018-05-31T09:45:54.053Z,20
2018-05-31T09:46:44.219Z,19.9
2018-05-31T09:47:33.911Z,20
2018-05-31T09:48:24.011Z,20
2018-05-31T09:49:13.201Z,20
2018-05-31T09:50:04.122Z,20
2018-05-31T09:50:54.192Z,20
2018-05-31T09:51:43.977Z,20
2018-05-31T09:52:33.809Z,20
2018-05-31T09:53:24.116Z,20
2018-05-31T09:54:13.581Z,20
2018-05-31T09:55:04.596Z,19.9
2018-05-31T09:55:54.839Z,20
2018-05-31T09:56:44.358Z,20
2018-05-31T09:57:34.479Z,20
2018-05-31T09:58:24.954Z,20
2018-05-31T09:59:13.998Z,20
2018-05-31T10:00:04.668Z,20
2018-05-31T10:00:54.109Z,20
2018-05-31T10:01:44.783Z,19.9
2018-05-31T10:02:34.516Z,19.9
2018-05-31T10:03:25.130Z,20
2018-05-31T10:04:14.924Z,20
2018-05-31T10:05:04.719Z,20
2018-05-31T10:05:55.390Z,20
2018-05-31T10:06:45.669Z,20
2018-05-31T10:07:35.222Z,20
2018-05-31T10:08:25.535Z,20
2018-05-31T10:09:15.354Z,20
2018-05-31T10:10:05.391Z,20
2018-05-31T10:10:55.984Z,20
2018-05-31T10:11:46.102Z,20
2018-05-31T10:12:35.885Z,20
2018-05-31T10:13:26.196Z,20
2018-05-31T10:14:15.435Z,20
2018-05-31T10:15:05.615Z,20
2018-05-31T10:15:55.538Z,20
2018-05-31T10:16:46.222Z,20
2018-05-31T10:17:36.270Z,20
2018-05-31T10:18:25.959Z,20
2018-05-31T10:19:16.055Z,20
2018-05-31T10:20:06.442Z,20
2018-05-31T10:20:56.219Z,20
2018-05-31T10:21:46.540Z,20
2018-05-31T10:22:36.188Z,20
2018-05-31T10:23:27.055Z,20
2018-05-31T10:24:16.445Z,20
2018-05-31T10:25:06.521Z,20
2018-05-31T10:25:56.649Z,20
2018-05-31T10:26:47.197Z,20.1
2018-05-31T10:27:36.735Z,20
2018-05-31T10:28:27.061Z,20.1
2018-05-31T10:29:16.322Z,20.1
2018-05-31T10:30:07.431Z,20.1
2018-05-31T10:30:57.561Z,20.1
2018-05-31T10:31:46.798Z,20.1
2018-05-31T10:32:37.164Z,20.1
2018-05-31T10:33:27.454Z,20.1
2018-05-31T10:34:17.217Z,20.1
2018-05-31T10:35:07.590Z,20.1
2018-05-31T10:35:57.722Z,20.1
2018-05-31T10:36:47.461Z,20.1
2018-05-31T10:37:37.293Z,20.1
2018-05-31T10:38:26.893Z,20.1
2018-05-31T10:39:17.892Z,20.1
2018-05-31T10:40:07.474Z,20.1
2018-05-31T10:40:58.313Z,20.1
2018-05-31T10:41:47.867Z,20.1
2018-05-31T10:42:37.364Z,20.1
2018-05-31T10:43:28.277Z,20.2
2018-05-31T10:44:18.041Z,20.3
2018-05-31T10:45:08.709Z,20.3
2018-05-31T10:45:57.866Z,20.4
2018-05-31T10:46:48.555Z,20.5
2018-05-31T10:47:38.901Z,20.6
2018-05-31T10:48:28.349Z,20.6
2018-05-31T10:49:18.057Z,20.6
2018-05-31T10:50:09.077Z,20.7
2018-05-31T10:50:58.511Z,20.7
2018-05-31T10:51:49.115Z,20.7
2018-05-31T10:52:38.681Z,20.6
2018-05-31T10:53:28.423Z,20.6
2018-05-31T10:54:18.811Z,20.6
2018-05-31T10:55:09.153Z,20.6
2018-05-31T10:55:59.207Z,20.6
2018-05-31T10:56:48.996Z,20.6
2018-05-31T10:57:39.561Z,20.6
2018-05-31T10:58:28.813Z,20.6
2018-05-31T10:59:19.731Z,20.6
2018-05-31T11:00:08.949Z,20.6
2018-05-31T11:00:58.993Z,20.6
2018-05-31T11:01:49.303Z,20.6
2018-05-31T11:02:39.661Z,20.6
2018-05-31T11:03:29.186Z,20.6
2018-05-31T11:04:20.056Z,20.6
2018-05-31T11:05:09.335Z,20.6
2018-05-31T11:05:59.728Z,20.5
2018-05-31T11:06:49.728Z,20.5
2018-05-31T11:07:40.112Z,20.5
2018-05-31T11:08:30.143Z,20.5
2018-05-31T11:09:20.218Z,20.5
2018-05-31T11:10:10.300Z,20.5